Time;durP1;ratioP1;P1;durP2;ratioP2;P2;SDS_P1;SDS_P2;PMS_P1;PMS_P2;Temp;Humidity;BMP_temperature;BMP_pressure;BME280_temperature;BME280_humidity;BME280_pressure;Samples;Min_cycle;Max_cycle;Signal;HPM_P1;HPM_P2
2023/07/01 00:00:54;;;;;;;10.68;2.28;;;17.30;99.50;;;;;;5086108;28;20043;-69
2023/07/01 00:03:20;;;;;;;13.45;2.38;;;17.30;99.50;;;;;;5064806;28;20053;-70
2023/07/01 00:05:46;;;;;;;9.05;2.50;;;17.30;99.50;;;;;;5066046;28;20127;-69
2023/07/01 00:08:11;;;;;;;10.90;2.53;;;17.30;99.50;;;;;;5065620;28;20048;-71
2023/07/01 00:10:37;;;;;;;11.23;2.60;;;17.30;99.50;;;;;;5047733;28;20040;-66
2023/07/01 00:13:02;;;;;;;9.82;2.45;;;17.30;99.50;;;;;;5064978;28;20519;-68
2023/07/01 00:15:28;;;;;;;10.10;2.35;;;17.30;99.40;;;;;;5065477;28;20411;-68
2023/07/01 00:17:54;;;;;;;10.27;2.50;;;17.30;99.50;;;;;;5064573;28;20080;-67
2023/07/01 00:20:26;;;;;;;10.60;3.22;;;17.30;99.50;;;;;;5065603;28;20480;-70
2023/07/01 00:22:52;;;;;;;12.52;3.00;;;17.30;99.50;;;;;;5079713;28;20054;-66
2023/07/01 00:25:18;;;;;;;13.35;2.58;;;17.30;99.50;;;;;;5085270;28;20691;-69
2023/07/01 00:27:44;;;;;;;11.05;2.40;;;17.30;99.50;;;;;;5079297;28;20045;-68
2023/07/01 00:30:10;;;;;;;13.65;2.53;;;17.30;99.40;;;;;;5085449;28;20674;-67
2023/07/01 00:32:35;;;;;;;10.23;2.30;;;17.40;99.40;;;;;;5085081;28;20050;-71
2023/07/01 00:35:01;;;;;;;9.50;2.60;;;17.40;99.50;;;;;;5073430;28;20053;-66
2023/07/01 00:37:27;;;;;;;11.73;2.60;;;17.40;99.50;;;;;;5081520;28;20095;-68
2023/07/01 00:39:53;;;;;;;7.15;2.55;;;17.40;99.40;;;;;;5084180;28;20119;-67
2023/07/01 00:42:19;;;;;;;12.10;2.92;;;17.40;99.50;;;;;;5084217;28;20119;-70
2023/07/01 00:44:44;;;;;;;8.15;2.45;;;17.50;99.60;;;;;;5079208;28;20151;-73
2023/07/01 00:47:10;;;;;;;10.10;2.53;;;17.40;99.60;;;;;;5082285;28;20040;-70
2023/07/01 00:49:38;;;;;;;6.45;2.03;;;17.40;99.60;;;;;;5068784;28;20067;-71
2023/07/01 00:52:05;;;;;;;12.65;2.85;;;17.40;99.70;;;;;;5066110;28;20086;-70
2023/07/01 00:54:30;;;;;;;12.68;2.50;;;17.40;99.70;;;;;;5066407;28;20044;-72
2023/07/01 00:56:56;;;;;;;10.05;2.35;;;17.50;99.80;;;;;;5064936;28;20059;-74
2023/07/01 00:59:22;;;;;;;10.25;2.60;;;17.50;99.90;;;;;;5066602;28;20048;-71
2023/07/01 01:01:53;;;;;;;13.45;3.03;;;17.50;99.90;;;;;;5065787;28;20085;-69
2023/07/01 01:04:34;;;;;;;14.95;2.90;;;17.50;99.90;;;;;;5079540;28;20044;-70
2023/07/01 01:07:07;;;;;;;10.88;2.10;;;17.50;99.90;;;;;;5066704;28;20094;-67
2023/07/01 01:09:42;;;;;;;10.38;2.72;;;17.50;99.90;;;;;;5065348;28;20048;-70
2023/07/01 01:12:10;;;;;;;;;;;17.50;99.90;;;;;;5066717;28;20037;-71
2023/07/01 01:14:37;;;;;;;7.95;2.20;;;17.40;99.90;;;;;;5059279;28;19977;-70
2023/07/01 01:17:10;;;;;;;12.52;2.83;;;17.40;99.90;;;;;;5084803;28;20062;-69
2023/07/01 01:19:45;;;;;;;8.35;2.28;;;17.40;99.90;;;;;;5061016;28;20561;-70
2023/07/01 01:22:25;;;;;;;8.15;2.33;;;17.40;99.90;;;;;;5064228;28;20078;-72
2023/07/01 01:24:55;;;;;;;9.05;2.55;;;17.50;99.90;;;;;;5059012;28;20039;-70
2023/07/01 01:27:27;;;;;;;9.60;2.85;;;17.40;99.90;;;;;;5085708;28;20783;-67
2023/07/01 01:29:53;;;;;;;12.63;2.53;;;17.50;99.90;;;;;;5062285;28;20585;-75
2023/07/01 01:32:20;;;;;;;8.30;2.50;;;17.50;99.90;;;;;;5073501;28;20080;-76
2023/07/01 01:34:46;;;;;;;12.38;2.92;;;17.40;99.90;;;;;;5076431;28;20114;-73
2023/07/01 01:37:30;;;;;;;12.63;2.50;;;17.50;99.90;;;;;;5071803;28;20043;-69
2023/07/01 01:40:01;;;;;;;8.25;2.58;;;17.40;99.90;;;;;;5067584;28;20117;-71
2023/07/01 01:42:34;;;;;;;12.68;2.85;;;17.40;99.90;;;;;;5065759;28;20040;-72
2023/07/01 01:45:00;;;;;;;9.85;2.47;;;17.40;99.90;;;;;;5069718;28;20062;-72
2023/07/01 01:47:30;;;;;;;8.82;3.10;;;17.40;99.90;;;;;;5082749;28;20074;-69
2023/07/01 01:50:02;;;;;;;12.63;2.80;;;17.40;99.90;;;;;;5060627;28;20079;-73
2023/07/01 01:52:28;;;;;;;11.93;2.67;;;17.40;99.90;;;;;;5068597;28;20048;-72
2023/07/01 01:54:56;;;;;;;11.95;3.00;;;17.40;99.90;;;;;;5066722;28;20051;-71
2023/07/01 01:57:23;;;;;;;12.05;3.20;;;17.40;99.90;;;;;;5047491;28;20049;-67
2023/07/01 01:59:49;;;;;;;9.93;3.45;;;17.30;99.90;;;;;;5069744;28;20492;-69
2023/07/01 02:02:14;;;;;;;12.05;3.70;;;17.20;99.90;;;;;;5083630;28;20090;-68
2023/07/01 02:04:40;;;;;;;11.18;3.58;;;17.10;99.90;;;;;;5076904;28;20044;-71
2023/07/01 02:07:06;;;;;;;11.63;3.95;;;17.00;99.90;;;;;;5064300;28;20075;-76
2023/07/01 02:09:32;;;;;;;11.35;3.90;;;16.90;99.90;;;;;;5083796;28;20047;-72
2023/07/01 02:11:58;;;;;;;11.93;4.45;;;16.80;99.90;;;;;;5075427;28;20048;-69
2023/07/01 02:14:24;;;;;;;11.75;4.40;;;16.60;99.90;;;;;;5064294;28;20048;-73
2023/07/01 02:16:51;;;;;;;15.88;3.83;;;16.50;99.90;;;;;;5059218;28;20143;-72
2023/07/01 02:19:17;;;;;;;11.75;4.32;;;16.40;99.90;;;;;;5047105;28;20039;-71
2023/07/01 02:21:43;;;;;;;12.48;4.03;;;16.40;99.90;;;;;;5071731;28;20515;-69
2023/07/01 02:24:09;;;;;;;10.25;3.60;;;16.40;99.90;;;;;;5073507;28;20044;-71
2023/07/01 02:26:35;;;;;;;15.27;4.35;;;16.30;99.90;;;;;;5065601;28;20036;-70
2023/07/01 02:29:01;;;;;;;8.50;3.67;;;16.30;99.90;;;;;;5083624;28;20040;-72
2023/07/01 02:31:27;;;;;;;7.82;3.88;;;16.30;99.90;;;;;;5058327;28;20113;-69
2023/07/01 02:34:00;;;;;;;10.90;4.40;;;16.30;99.90;;;;;;5047191;28;20126;-74
2023/07/01 02:36:26;;;;;;;13.50;3.90;;;16.30;99.90;;;;;;5065818;28;20427;-68
2023/07/01 02:38:54;;;;;;;12.40;4.20;;;16.30;99.90;;;;;;5083031;28;20048;-76
2023/07/01 02:41:20;;;;;;;7.93;3.53;;;16.40;99.90;;;;;;5079314;28;20438;-74
2023/07/01 02:43:46;;;;;;;10.63;3.78;;;16.40;99.90;;;;;;5051627;28;20039;-71
2023/07/01 02:46:12;;;;;;;8.48;3.85;;;16.40;99.90;;;;;;5066318;28;20122;-72
2023/07/01 02:48:37;;;;;;;13.20;4.38;;;16.40;99.90;;;;;;5067653;28;20040;-72
2023/07/01 02:51:03;;;;;;;10.00;3.90;;;16.40;99.90;;;;;;5085919;28;20105;-73
2023/07/01 02:53:28;;;;;;;13.00;4.07;;;16.50;99.90;;;;;;5086324;28;20097;-72
2023/07/01 02:55:54;;;;;;;11.40;4.10;;;16.50;99.90;;;;;;5077461;28;20090;-69
2023/07/01 02:58:22;;;;;;;9.82;4.57;;;16.50;99.90;;;;;;5084803;28;20041;-71
2023/07/01 03:00:47;;;;;;;8.90;4.30;;;16.50;99.90;;;;;;5067552;28;20044;-74
2023/07/01 03:03:13;;;;;;;14.07;4.78;;;16.60;99.90;;;;;;5067446;28;20049;-68
2023/07/01 03:05:40;;;;;;;10.63;4.20;;;16.60;99.90;;;;;;5069945;28;20036;-70
2023/07/01 03:08:07;;;;;;;10.25;4.53;;;16.60;99.90;;;;;;5088723;28;20052;-68
2023/07/01 03:10:33;;;;;;;11.13;4.10;;;16.60;99.90;;;;;;5087695;28;20052;-71
2023/07/01 03:12:59;;;;;;;14.57;4.35;;;16.50;99.90;;;;;;5086459;28;20059;-72
2023/07/01 03:15:25;;;;;;;11.45;4.35;;;16.60;99.90;;;;;;5084437;28;20075;-75
2023/07/01 03:17:52;;;;;;;10.13;4.10;;;16.50;99.90;;;;;;5087548;28;20083;-68
2023/07/01 03:20:24;;;;;;;10.13;4.18;;;16.50;99.90;;;;;;5074932;28;20028;-68
2023/07/01 03:22:50;;;;;;;8.10;3.75;;;16.50;99.90;;;;;;5062207;28;20078;-74
2023/07/01 03:25:16;;;;;;;12.75;4.00;;;16.50;99.90;;;;;;5077991;28;20165;-70
2023/07/01 03:27:43;;;;;;;11.88;3.67;;;16.60;99.90;;;;;;5050103;28;20062;-70
2023/07/01 03:30:13;;;;;;;10.25;3.83;;;16.60;99.90;;;;;;5068628;28;20048;-74
2023/07/01 03:32:46;;;;;;;11.23;3.78;;;16.60;99.90;;;;;;5071526;28;20531;-69
2023/07/01 03:35:13;;;;;;;11.60;4.53;;;16.60;99.90;;;;;;5058616;28;20058;-70
2023/07/01 03:37:40;;;;;;;9.23;4.30;;;16.60;99.90;;;;;;5069419;28;20058;-66
2023/07/01 03:40:12;;;;;;;12.15;3.83;;;16.60;99.90;;;;;;5062257;28;20033;-71
2023/07/01 03:42:41;;;;;;;11.25;4.38;;;16.60;99.90;;;;;;5075444;28;20041;-66
2023/07/01 03:45:12;;;;;;;11.15;4.20;;;16.50;99.90;;;;;;5053244;28;20488;-70
2023/07/01 03:47:40;;;;;;;11.13;4.72;;;16.50;99.90;;;;;;5087989;28;20043;-71
2023/07/01 03:50:09;;;;;;;14.40;5.00;;;16.50;99.90;;;;;;5066407;28;20051;-71
2023/07/01 03:52:38;;;;;;;11.82;4.22;;;16.40;99.90;;;;;;5067971;28;20043;-68
2023/07/01 03:55:05;;;;;;;11.20;4.53;;;16.30;99.90;;;;;;5086708;28;20433;-73
2023/07/01 03:57:37;;;;;;;13.27;4.38;;;16.20;99.90;;;;;;5084199;28;20051;-73
2023/07/01 04:00:08;;;;;;;11.23;4.60;;;16.20;99.90;;;;;;5066679;28;20040;-71
2023/07/01 04:02:36;;;;;;;10.30;4.25;;;16.10;99.90;;;;;;5073905;28;20056;-73
2023/07/01 04:05:09;;;;;;;12.38;4.55;;;16.10;99.90;;;;;;5076053;28;20048;-69
2023/07/01 04:07:37;;;;;;;10.93;4.70;;;16.10;99.90;;;;;;5066933;28;20072;-76
2023/07/01 04:10:05;;;;;;;8.63;4.68;;;16.10;99.90;;;;;;5066650;28;20036;-71
2023/07/01 04:12:32;;;;;;;11.52;4.75;;;16.00;99.90;;;;;;5049761;28;20530;-71
2023/07/01 04:14:59;;;;;;;8.43;3.90;;;16.00;99.90;;;;;;5050528;28;20077;-72
2023/07/01 04:17:24;;;;;;;10.32;3.92;;;16.00;99.90;;;;;;5066694;28;20504;-70
2023/07/01 04:19:53;;;;;;;12.20;4.57;;;16.00;99.90;;;;;;5065990;28;20040;-70
2023/07/01 04:22:20;;;;;;;9.95;4.40;;;16.00;99.90;;;;;;5065672;28;20043;-78
2023/07/01 04:24:45;;;;;;;17.10;4.35;;;16.00;99.90;;;;;;5078704;28;20510;-71
2023/07/01 04:27:11;;;;;;;9.23;3.85;;;16.00;99.90;;;;;;5084210;28;20082;-70
2023/07/01 04:29:37;;;;;;;9.60;4.30;;;16.00;99.90;;;;;;5086423;28;20109;-69
2023/07/01 04:32:03;;;;;;;10.80;3.75;;;16.00;99.90;;;;;;5084733;28;20071;-71
2023/07/01 04:34:28;;;;;;;12.93;4.30;;;16.00;99.90;;;;;;5079539;28;20102;-72
2023/07/01 04:36:54;;;;;;;9.35;4.13;;;16.00;99.90;;;;;;5073839;28;20494;-72
2023/07/01 04:39:23;;;;;;;9.38;4.28;;;16.00;99.90;;;;;;5087084;28;20039;-67
2023/07/01 04:41:49;;;;;;;10.73;3.92;;;16.00;99.90;;;;;;5084938;28;20690;-69
2023/07/01 04:44:15;;;;;;;9.10;4.20;;;16.00;99.90;;;;;;5069106;28;20044;-69
2023/07/01 04:46:40;;;;;;;8.57;4.25;;;16.00;99.90;;;;;;5084343;28;20044;-66
2023/07/01 04:49:09;;;;;;;8.52;4.10;;;16.10;99.90;;;;;;5083022;28;20044;-69
2023/07/01 04:51:38;;;;;;;8.70;4.13;;;16.10;99.90;;;;;;5084272;28;20042;-73
2023/07/01 04:54:04;;;;;;;11.13;4.65;;;16.10;99.90;;;;;;5084946;28;20048;-74
2023/07/01 04:56:31;;;;;;;10.23;4.68;;;16.10;99.90;;;;;;5068726;28;20054;-69
2023/07/01 04:58:56;;;;;;;9.93;4.47;;;16.10;99.90;;;;;;5083551;28;20052;-71
2023/07/01 05:01:22;;;;;;;9.68;4.10;;;16.20;99.90;;;;;;5069433;28;20055;-71
2023/07/01 05:03:48;;;;;;;8.90;4.20;;;16.20;99.90;;;;;;5090799;28;20567;-71
2023/07/01 05:06:13;;;;;;;11.32;4.43;;;16.20;99.90;;;;;;5083879;28;20047;-70
2023/07/01 05:08:39;;;;;;;11.43;4.30;;;16.20;99.90;;;;;;5084049;28;20035;-73
2023/07/01 05:11:04;;;;;;;11.35;4.50;;;16.20;99.90;;;;;;5084991;28;20491;-70
2023/07/01 05:13:30;;;;;;;15.20;4.70;;;16.30;99.90;;;;;;5082819;28;20044;-75
2023/07/01 05:15:56;;;;;;;13.07;4.95;;;16.20;99.90;;;;;;5085731;28;20040;-67
2023/07/01 05:18:22;;;;;;;12.45;4.60;;;16.20;99.90;;;;;;5085019;28;20044;-71
2023/07/01 05:20:47;;;;;;;13.57;4.75;;;16.30;99.90;;;;;;5065047;28;20044;-67
2023/07/01 05:23:13;;;;;;;12.00;4.43;;;16.30;99.90;;;;;;5085030;28;20040;-71
2023/07/01 05:25:39;;;;;;;15.10;4.65;;;16.30;99.90;;;;;;5081622;28;20068;-65
2023/07/01 05:28:05;;;;;;;9.65;4.18;;;16.30;99.90;;;;;;5084303;28;20071;-73
2023/07/01 05:30:31;;;;;;;10.93;4.70;;;16.30;99.90;;;;;;5065458;28;20071;-68
2023/07/01 05:32:56;;;;;;;12.45;4.43;;;16.30;99.90;;;;;;5067643;28;20046;-70
2023/07/01 05:35:22;;;;;;;9.65;4.95;;;16.30;99.90;;;;;;5077896;28;20090;-69
2023/07/01 05:37:47;;;;;;;10.65;4.72;;;16.30;99.90;;;;;;5067332;28;20156;-70
2023/07/01 05:40:13;;;;;;;12.40;5.00;;;16.30;99.90;;;;;;5080005;28;20044;-73
2023/07/01 05:42:39;;;;;;;9.82;4.55;;;16.30;99.90;;;;;;5067011;28;20036;-71
2023/07/01 05:45:05;;;;;;;10.60;5.13;;;16.30;99.90;;;;;;5066224;28;20058;-69
2023/07/01 05:47:32;;;;;;;12.95;4.88;;;16.40;99.90;;;;;;5067216;28;20118;-70
2023/07/01 05:49:58;;;;;;;12.25;4.45;;;16.40;99.90;;;;;;5055538;28;20048;-70
2023/07/01 05:52:23;;;;;;;12.02;4.65;;;16.40;99.90;;;;;;5064183;28;20067;-70
2023/07/01 05:54:51;;;;;;;9.82;4.90;;;16.40;99.90;;;;;;5069697;28;20396;-69
2023/07/01 05:57:18;;;;;;;11.82;4.95;;;16.40;99.90;;;;;;5083699;28;20411;-73
2023/07/01 05:59:43;;;;;;;11.45;4.60;;;16.40;99.90;;;;;;5081876;28;20113;-67
2023/07/01 06:02:09;;;;;;;14.80;4.90;;;16.40;99.90;;;;;;5083892;28;20441;-69
2023/07/01 06:04:35;;;;;;;9.05;4.63;;;16.40;99.90;;;;;;5079152;28;20067;-68
2023/07/01 06:07:00;;;;;;;11.35;4.85;;;16.50;99.90;;;;;;5066801;28;20070;-68
2023/07/01 06:09:26;;;;;;;11.95;5.20;;;16.40;99.90;;;;;;5080819;28;20094;-66
2023/07/01 06:11:52;;;;;;;9.55;5.10;;;16.50;99.90;;;;;;5066291;28;20662;-66
2023/07/01 06:14:18;;;;;;;12.93;5.53;;;16.50;99.90;;;;;;5081454;28;20063;-69
2023/07/01 06:16:44;;;;;;;13.15;5.75;;;16.50;99.90;;;;;;5062456;28;20086;-65
2023/07/01 06:19:10;;;;;;;10.65;5.03;;;16.50;99.90;;;;;;5063840;28;20195;-68
2023/07/01 06:21:36;;;;;;;10.32;5.03;;;16.50;99.90;;;;;;5079847;28;20047;-68
2023/07/01 06:24:01;;;;;;;10.15;4.90;;;16.50;99.90;;;;;;5081322;28;20043;-67
2023/07/01 06:26:27;;;;;;;10.65;5.07;;;16.50;99.90;;;;;;5080019;28;20051;-67
2023/07/01 06:28:53;;;;;;;13.23;5.22;;;16.50;99.90;;;;;;5083103;28;20179;-70
2023/07/01 06:31:18;;;;;;;9.57;4.75;;;16.50;99.90;;;;;;5066748;28;20055;-66
2023/07/01 06:33:45;;;;;;;9.35;4.80;;;16.50;99.90;;;;;;5081780;28;20081;-66
2023/07/01 06:36:12;;;;;;;12.57;5.10;;;16.60;99.90;;;;;;5098501;28;20040;-65
2023/07/01 06:38:40;;;;;;;15.18;5.88;;;16.60;99.90;;;;;;5082385;28;20043;-66
2023/07/01 06:41:06;;;;;;;14.82;6.32;;;16.60;99.90;;;;;;5072263;28;20039;-69
2023/07/01 06:43:36;;;;;;;9.40;5.03;;;16.50;99.90;;;;;;5083949;28;20032;-73
2023/07/01 06:46:06;;;;;;;11.48;6.35;;;16.50;99.90;;;;;;5047484;28;20495;-66
2023/07/01 06:48:32;;;;;;;14.23;6.45;;;16.40;99.90;;;;;;5062740;28;20032;-67
2023/07/01 06:50:57;;;;;;;18.30;6.75;;;16.40;99.90;;;;;;5078200;28;20103;-68
2023/07/01 06:53:23;;;;;;;14.10;7.68;;;16.30;99.90;;;;;;5080781;28;20069;-67
2023/07/01 06:55:49;;;;;;;10.20;6.93;;;16.30;99.90;;;;;;5065518;28;20035;-65
2023/07/01 06:58:14;;;;;;;13.50;6.65;;;16.20;99.90;;;;;;5082603;28;20040;-68
2023/07/01 07:00:40;;;;;;;11.48;7.32;;;16.20;99.90;;;;;;5065961;28;20074;-62
2023/07/01 07:03:05;;;;;;;13.18;7.63;;;16.10;99.90;;;;;;5082489;28;20073;-66
2023/07/01 07:05:32;;;;;;;13.32;7.60;;;16.10;99.90;;;;;;5080416;28;20040;-64
2023/07/01 07:07:58;;;;;;;12.82;7.63;;;16.10;99.90;;;;;;5083407;28;20028;-64
2023/07/01 07:10:25;;;;;;;14.18;8.50;;;16.10;99.90;;;;;;5083907;28;20431;-65
2023/07/01 07:12:50;;;;;;;13.27;8.43;;;16.10;99.90;;;;;;5080722;28;20089;-70
2023/07/01 07:15:16;;;;;;;11.90;8.02;;;16.10;99.90;;;;;;5083183;28;20028;-66
2023/07/01 07:17:42;;;;;;;12.57;7.53;;;16.10;99.90;;;;;;5082858;28;20047;-67
2023/07/01 07:20:08;;;;;;;11.40;7.00;;;16.10;99.90;;;;;;5078626;28;20040;-65
2023/07/01 07:22:34;;;;;;;13.27;7.50;;;16.10;99.90;;;;;;5082554;28;20066;-65
2023/07/01 07:25:00;;;;;;;12.57;6.78;;;16.20;99.90;;;;;;5064341;28;20032;-66
2023/07/01 07:27:25;;;;;;;10.07;6.72;;;16.10;99.90;;;;;;5080469;28;20475;-65
2023/07/01 07:29:51;;;;;;;10.98;7.43;;;16.20;99.90;;;;;;5084300;28;20040;-67
2023/07/01 07:32:17;;;;;;;11.75;6.93;;;16.20;99.90;;;;;;5068127;28;20061;-66
2023/07/01 07:34:43;;;;;;;12.00;7.00;;;16.20;99.90;;;;;;5065268;28;20035;-62
2023/07/01 07:37:09;;;;;;;11.25;6.22;;;16.30;99.90;;;;;;5083051;28;20057;-63
2023/07/01 07:39:34;;;;;;;11.07;7.35;;;16.30;99.90;;;;;;5066864;28;20461;-67
2023/07/01 07:42:00;;;;;;;11.98;6.38;;;16.30;99.90;;;;;;5066320;28;20040;-68
2023/07/01 07:44:26;;;;;;;8.63;6.22;;;16.30;99.90;;;;;;5065535;28;20411;-66
2023/07/01 07:46:51;;;;;;;10.13;6.78;;;16.40;99.90;;;;;;5083676;28;20050;-65
2023/07/01 07:49:17;;;;;;;9.60;6.13;;;16.40;99.90;;;;;;5081901;28;20051;-64
2023/07/01 07:51:43;;;;;;;9.73;6.32;;;16.50;99.90;;;;;;5083754;28;20123;-68
2023/07/01 07:54:09;;;;;;;9.55;5.88;;;16.50;99.90;;;;;;5083892;28;20074;-68
2023/07/01 07:56:34;;;;;;;9.23;5.90;;;16.50;99.90;;;;;;5069588;28;20587;-66
2023/07/01 07:59:00;;;;;;;8.77;5.75;;;16.50;99.90;;;;;;5083728;28;20032;-66
2023/07/01 08:01:25;;;;;;;9.32;6.00;;;16.60;99.90;;;;;;5064322;28;20565;-66
2023/07/01 08:03:51;;;;;;;8.30;5.40;;;16.60;99.90;;;;;;5081330;28;20047;-66
2023/07/01 08:06:17;;;;;;;7.95;5.57;;;16.60;99.90;;;;;;5080511;28;20113;-71
2023/07/01 08:08:43;;;;;;;10.73;5.72;;;16.60;99.90;;;;;;5083728;28;20039;-67
2023/07/01 08:11:09;;;;;;;10.48;6.40;;;16.60;99.90;;;;;;5081964;28;20036;-67
2023/07/01 08:13:34;;;;;;;11.90;6.07;;;16.60;99.90;;;;;;5080907;28;20074;-69
2023/07/01 08:16:00;;;;;;;10.88;6.70;;;16.60;99.90;;;;;;5082467;28;20044;-68
2023/07/01 08:18:26;;;;;;;10.63;6.47;;;16.70;99.90;;;;;;5067156;28;20094;-66
2023/07/01 08:20:52;;;;;;;10.15;7.20;;;16.70;99.90;;;;;;5065659;28;20546;-68
2023/07/01 08:23:17;;;;;;;11.45;6.47;;;16.70;99.90;;;;;;5080912;28;20051;-68
2023/07/01 08:25:43;;;;;;;15.15;6.97;;;16.70;99.90;;;;;;5067141;28;20075;-66
2023/07/01 08:28:09;;;;;;;10.32;7.07;;;16.80;99.90;;;;;;5083760;28;20110;-67
2023/07/01 08:30:35;;;;;;;10.32;6.75;;;16.80;99.90;;;;;;5087266;28;20904;-67
2023/07/01 08:33:01;;;;;;;11.15;6.70;;;16.80;99.90;;;;;;5076882;28;20498;-65
2023/07/01 08:35:28;;;;;;;10.82;7.05;;;16.90;99.90;;;;;;5083388;28;20047;-70
2023/07/01 08:37:54;;;;;;;12.75;6.78;;;16.90;99.90;;;;;;5068080;28;20551;-70
2023/07/01 08:40:19;;;;;;;10.68;6.82;;;17.00;99.90;;;;;;5071506;28;20159;-75
2023/07/01 08:42:50;;;;;;;10.27;7.13;;;17.00;99.90;;;;;;5069680;28;20071;-71
2023/07/01 08:45:24;;;;;;;8.68;6.45;;;17.10;99.90;;;;;;5069378;28;20781;-68
2023/07/01 08:47:52;;;;;;;10.50;6.28;;;17.10;99.90;;;;;;5064222;28;20052;-69
2023/07/01 08:50:21;;;;;;;9.10;6.05;;;17.10;99.90;;;;;;5065148;28;20528;-70
2023/07/01 08:53:03;;;;;;;9.75;6.15;;;17.20;99.90;;;;;;5048769;28;20052;-70
2023/07/01 08:55:30;;;;;;;8.57;6.00;;;17.20;99.90;;;;;;5049410;28;20430;-68
2023/07/01 08:57:55;;;;;;;9.35;6.70;;;17.20;99.90;;;;;;5048023;28;20518;-69
2023/07/01 09:00:21;;;;;;;8.73;6.00;;;17.30;99.90;;;;;;5064985;28;20127;-64
2023/07/01 09:02:48;;;;;;;8.30;6.05;;;17.30;99.90;;;;;;5065362;28;20055;-69
2023/07/01 09:05:14;;;;;;;9.35;6.13;;;17.30;99.90;;;;;;5064615;28;20507;-73
2023/07/01 09:07:41;;;;;;;9.15;5.90;;;17.30;99.90;;;;;;5065287;28;20043;-68
2023/07/01 09:10:07;;;;;;;8.57;5.88;;;17.30;99.90;;;;;;5063997;28;20086;-73
2023/07/01 09:12:33;;;;;;;11.13;6.13;;;17.30;99.90;;;;;;5064214;28;20782;-73
2023/07/01 09:15:04;;;;;;;8.95;6.22;;;17.40;99.90;;;;;;5048331;28;20114;-68
2023/07/01 09:17:38;;;;;;;9.07;6.38;;;17.40;99.90;;;;;;5048049;28;20040;-71
2023/07/01 09:20:12;;;;;;;9.40;6.28;;;17.30;99.90;;;;;;5064184;28;20049;-75
2023/07/01 09:22:43;;;;;;;9.05;6.55;;;17.40;99.90;;;;;;5060615;28;20134;-71
2023/07/01 09:25:09;;;;;;;10.00;6.75;;;17.30;99.90;;;;;;5067714;28;20040;-71
2023/07/01 09:27:42;;;;;;;10.40;7.05;;;17.40;99.90;;;;;;5084095;28;20333;-71
2023/07/01 09:30:19;;;;;;;9.75;7.15;;;17.40;99.90;;;;;;5063890;28;20420;-65
2023/07/01 09:32:45;;;;;;;10.95;7.25;;;17.50;99.90;;;;;;5081327;28;20040;-65
2023/07/01 09:35:11;;;;;;;11.18;7.35;;;17.50;99.90;;;;;;5081193;28;20400;-68
2023/07/01 09:37:37;;;;;;;11.23;7.82;;;17.50;99.90;;;;;;5064407;28;20088;-72
2023/07/01 09:40:19;;;;;;;11.63;7.28;;;17.50;99.90;;;;;;5064110;28;20073;-70
2023/07/01 09:42:55;;;;;;;10.02;7.38;;;17.60;99.90;;;;;;5047043;28;20125;-67
2023/07/01 09:45:21;;;;;;;9.90;6.93;;;17.60;99.90;;;;;;5064911;28;20814;-65
2023/07/01 09:47:52;;;;;;;9.63;6.70;;;17.60;99.90;;;;;;5081505;28;20037;-69
2023/07/01 09:50:23;;;;;;;9.57;7.88;;;17.60;99.90;;;;;;5073564;28;20513;-70
2023/07/01 09:52:50;;;;;;;10.50;7.65;;;17.60;99.90;;;;;;5084251;28;20698;-69
2023/07/01 09:55:16;;;;;;;9.15;6.43;;;17.70;99.90;;;;;;5067313;28;20109;-71
2023/07/01 09:57:42;;;;;;;9.75;7.05;;;17.80;99.90;;;;;;5066166;28;20595;-76
2023/07/01 10:00:16;;;;;;;10.75;6.38;;;17.80;99.90;;;;;;5064123;28;20051;-69
2023/07/01 10:02:44;;;;;;;9.18;6.22;;;17.80;99.90;;;;;;5047303;28;20079;-69
2023/07/01 10:05:10;;;;;;;9.32;5.85;;;17.80;99.90;;;;;;5063435;28;20028;-73
2023/07/01 10:07:39;;;;;;;9.52;6.05;;;17.80;99.90;;;;;;5047250;28;20045;-71
2023/07/01 10:10:10;;;;;;;7.93;5.90;;;17.90;99.90;;;;;;5063316;28;20606;-69
2023/07/01 10:12:36;;;;;;;8.27;5.63;;;17.90;99.90;;;;;;5073775;28;20040;-70
2023/07/01 10:15:03;;;;;;;9.10;5.82;;;17.90;99.90;;;;;;5064344;28;20047;-67
2023/07/01 10:17:48;;;;;;;8.40;5.68;;;17.90;99.90;;;;;;5063964;28;20083;-70
2023/07/01 10:20:37;;;;;;;7.85;5.80;;;18.00;99.90;;;;;;5046308;28;20055;-69
2023/07/01 10:23:03;;;;;;;9.02;6.40;;;18.00;99.90;;;;;;5055057;28;20055;-70
2023/07/01 10:25:33;;;;;;;11.02;7.03;;;18.00;99.90;;;;;;5067095;28;20036;-63
2023/07/01 10:28:09;;;;;;;7.97;6.00;;;18.10;99.90;;;;;;5048652;28;20064;-68
2023/07/01 10:30:44;;;;;;;9.20;6.57;;;18.00;99.90;;;;;;5046974;28;20451;-67
2023/07/01 10:33:33;;;;;;;8.88;5.60;;;18.10;99.90;;;;;;5047344;28;20050;-67
2023/07/01 10:36:13;;;;;;;9.63;6.47;;;18.10;99.90;;;;;;5064695;28;20521;-69
2023/07/01 10:38:41;;;;;;;9.23;6.47;;;18.10;99.90;;;;;;5065373;28;20049;-69
2023/07/01 10:41:07;;;;;;;9.80;6.80;;;18.10;99.90;;;;;;5047431;28;20051;-72
2023/07/01 10:43:37;;;;;;;9.32;6.50;;;18.10;99.90;;;;;;5064113;28;20044;-69
2023/07/01 10:46:23;;;;;;;10.07;7.18;;;18.10;99.90;;;;;;5063834;28;20044;-68
2023/07/01 10:49:07;;;;;;;9.85;6.50;;;18.10;99.90;;;;;;5047429;28;20543;-64
2023/07/01 10:51:45;;;;;;;10.93;7.82;;;18.10;99.90;;;;;;5063917;28;20578;-67
2023/07/01 10:54:11;;;;;;;10.60;7.10;;;18.10;99.90;;;;;;5063832;28;20787;-62
2023/07/01 10:57:10;;;;;;;11.20;7.43;;;18.10;99.90;;;;;;5064604;28;20040;-61
2023/07/01 10:59:35;;;;;;;11.05;6.93;;;18.00;99.90;;;;;;5063760;28;20101;-61
2023/07/01 11:02:01;;;;;;;10.73;6.57;;;18.00;99.90;;;;;;5066503;28;20052;-59
2023/07/01 11:04:51;;;;;;;10.10;6.90;;;18.00;99.90;;;;;;5067457;28;20091;-61
2023/07/01 11:07:27;;;;;;;8.70;5.88;;;18.00;99.90;;;;;;5068422;28;20040;-62
2023/07/01 11:09:54;;;;;;;8.27;5.45;;;18.00;99.90;;;;;;5066871;28;20044;-61
2023/07/01 11:12:19;;;;;;;12.25;6.35;;;18.00;99.90;;;;;;5067844;28;20052;-62
2023/07/01 11:14:45;;;;;;;8.85;6.18;;;18.00;99.90;;;;;;5054874;28;20040;-59
2023/07/01 11:17:15;;;;;;;9.82;5.00;;;17.90;99.90;;;;;;5034379;28;20109;-60
2023/07/01 11:19:44;;;;;;;6.85;3.92;;;17.90;99.90;;;;;;5080858;28;20040;-59
2023/07/01 11:22:11;;;;;;;7.28;4.20;;;17.90;99.90;;;;;;5084150;28;20048;-59
2023/07/01 11:24:37;;;;;;;9.15;4.20;;;18.00;99.90;;;;;;5085465;28;20053;-60
2023/07/01 11:27:06;;;;;;;5.88;3.00;;;18.00;99.90;;;;;;5084782;28;20063;-63
2023/07/01 11:29:31;;;;;;;5.90;2.28;;;18.00;99.90;;;;;;5083537;28;20052;-63
2023/07/01 11:31:59;;;;;;;5.10;2.38;;;18.10;99.90;;;;;;5069675;28;20055;-60
2023/07/01 11:34:24;;;;;;;6.95;2.00;;;18.10;99.90;;;;;;5083438;28;20531;-61
2023/07/01 11:36:50;;;;;;;4.82;1.75;;;18.20;99.90;;;;;;5087091;28;20044;-62
2023/07/01 11:39:17;;;;;;;3.80;1.35;;;18.30;99.90;;;;;;5068388;28;20047;-63
2023/07/01 11:41:54;;;;;;;2.60;1.20;;;18.20;99.90;;;;;;5087240;28;20074;-67
2023/07/01 11:44:28;;;;;;;3.92;1.50;;;18.30;99.90;;;;;;5078333;28;20044;-65
2023/07/01 11:46:54;;;;;;;4.32;1.70;;;18.30;99.90;;;;;;5067424;28;20112;-62
2023/07/01 11:49:31;;;;;;;4.10;1.65;;;18.40;99.90;;;;;;5065589;28;20536;-64
2023/07/01 11:52:03;;;;;;;3.92;1.95;;;18.50;99.90;;;;;;5049065;28;20079;-62
2023/07/01 11:54:48;;;;;;;6.25;2.00;;;18.60;99.90;;;;;;5065453;28;20055;-63
2023/07/01 11:57:15;;;;;;;4.18;1.67;;;18.60;99.90;;;;;;5063817;28;20076;-61
2023/07/01 11:59:49;;;;;;;6.45;2.08;;;18.50;99.90;;;;;;5085612;28;20036;-62
2023/07/01 12:02:15;;;;;;;;;;;18.50;99.90;;;;;;5086918;28;20043;-61
2023/07/01 12:04:41;;;;;;;4.00;1.60;;;18.40;99.90;;;;;;5081304;28;20123;-61
2023/07/01 12:07:07;;;;;;;4.50;1.92;;;18.40;99.90;;;;;;5069669;28;20167;-63
2023/07/01 12:09:33;;;;;;;5.38;2.58;;;18.50;99.90;;;;;;5086839;28;20058;-67
2023/07/01 12:11:59;;;;;;;5.40;2.85;;;18.70;99.90;;;;;;5084061;28;20048;-62
2023/07/01 12:14:25;;;;;;;7.45;3.70;;;18.80;99.90;;;;;;5081253;28;20051;-63
2023/07/01 12:16:51;;;;;;;8.45;4.15;;;18.90;99.90;;;;;;5065420;28;20043;-64
2023/07/01 12:19:18;;;;;;;7.88;4.47;;;19.10;99.90;;;;;;5065207;28;20039;-69
2023/07/01 12:21:44;;;;;;;10.23;5.07;;;19.20;99.90;;;;;;5048487;28;20047;-65
2023/07/01 12:24:20;;;;;;;11.38;5.82;;;19.20;99.90;;;;;;5069898;28;20089;-63
2023/07/01 12:26:46;;;;;;;9.85;5.30;;;19.30;99.90;;;;;;5083331;28;20533;-68
2023/07/01 12:29:12;;;;;;;8.90;6.00;;;19.30;99.90;;;;;;5081348;28;20117;-65
2023/07/01 12:31:38;;;;;;;8.75;5.78;;;19.20;99.90;;;;;;5082467;28;20492;-65
2023/07/01 12:34:04;;;;;;;8.52;5.18;;;19.20;99.90;;;;;;5083587;28;20050;-65
2023/07/01 12:36:30;;;;;;;9.82;5.93;;;19.20;99.90;;;;;;5080919;28;20179;-69
2023/07/01 12:38:58;;;;;;;9.43;5.65;;;19.20;99.90;;;;;;5084240;28;20044;-66
2023/07/01 12:41:24;;;;;;;9.75;5.93;;;19.20;99.90;;;;;;5063642;28;20096;-67
2023/07/01 12:43:49;;;;;;;8.93;6.00;;;19.30;99.90;;;;;;5057431;28;20040;-65